Time;durP1;ratioP1;P1;durP2;ratioP2;P2;SDS_P1;SDS_P2;PMS_P1;PMS_P2;Temp;Humidity;BMP_temperature;BMP_pressure;BME280_temperature;BME280_humidity;BME280_pressure;Samples;Min_cycle;Max_cycle;Signal;HPM_P1;HPM_P2
2023/04/29 00:00:24;;;;;;;49.58;35.95;;;11.30;86.80;;;;;;5012772;28;20044;-76
2023/04/29 00:02:49;;;;;;;48.58;34.25;;;11.20;86.40;;;;;;5008826;28;20042;-75
2023/04/29 00:05:15;;;;;;;45.00;31.08;;;11.20;86.20;;;;;;5018585;28;20072;-75
2023/04/29 00:07:42;;;;;;;49.65;34.88;;;11.10;85.90;;;;;;5014651;28;20040;-76
2023/04/29 00:10:08;;;;;;;46.35;32.70;;;11.10;85.80;;;;;;5009905;28;20128;-76
2023/04/29 00:12:33;;;;;;;46.13;32.42;;;11.20;86.10;;;;;;5008945;28;20040;-74
2023/04/29 00:15:01;;;;;;;47.95;33.50;;;11.10;86.10;;;;;;5012108;28;20033;-75
2023/04/29 00:17:27;;;;;;;47.17;33.05;;;11.20;86.00;;;;;;5013996;28;20038;-75
2023/04/29 00:19:53;;;;;;;44.70;31.30;;;11.10;85.80;;;;;;5017050;28;20028;-76
2023/04/29 00:22:21;;;;;;;45.30;32.75;;;11.10;86.00;;;;;;5011739;28;20393;-76
2023/04/29 00:24:47;;;;;;;48.60;32.28;;;11.10;86.00;;;;;;5008719;28;20036;-76
2023/04/29 00:27:12;;;;;;;44.42;30.73;;;11.10;85.80;;;;;;5007580;28;20404;-76
2023/04/29 00:29:38;;;;;;;42.95;30.48;;;11.00;85.90;;;;;;5011688;28;20021;-77
2023/04/29 00:32:04;;;;;;;45.63;30.85;;;11.10;86.10;;;;;;5013103;28;20041;-76
2023/04/29 00:34:30;;;;;;;45.70;31.50;;;11.10;86.00;;;;;;5019745;28;20049;-76
2023/04/29 00:36:55;;;;;;;44.58;32.17;;;11.10;85.80;;;;;;5015618;28;20537;-76
2023/04/29 00:39:21;;;;;;;46.55;31.90;;;11.20;85.80;;;;;;5020195;28;20173;-76
2023/04/29 00:41:47;;;;;;;48.25;30.73;;;11.10;85.80;;;;;;5016690;28;20481;-76
2023/04/29 00:44:13;;;;;;;45.05;31.33;;;11.10;85.90;;;;;;5010444;28;20374;-78
2023/04/29 00:46:38;;;;;;;42.78;31.02;;;11.10;85.90;;;;;;5014344;28;20316;-77
2023/04/29 00:49:04;;;;;;;45.33;30.98;;;11.10;85.90;;;;;;5015973;28;20022;-77
2023/04/29 00:51:32;;;;;;;45.53;32.08;;;11.10;85.90;;;;;;5011250;28;20087;-75
2023/04/29 00:53:57;;;;;;;49.05;33.10;;;11.10;85.80;;;;;;5007387;28;20373;-75
2023/04/29 00:56:23;;;;;;;47.08;33.15;;;11.00;85.80;;;;;;5010960;28;20375;-78
2023/04/29 00:58:51;;;;;;;51.33;35.10;;;11.10;85.80;;;;;;5008367;28;20463;-77
2023/04/29 01:01:20;;;;;;;51.60;34.80;;;11.00;85.50;;;;;;5016175;28;20054;-76
2023/04/29 01:03:46;;;;;;;52.88;35.20;;;10.90;85.50;;;;;;5011379;28;20533;-75
2023/04/29 01:06:33;;;;;;;58.38;36.42;;;10.80;85.20;;;;;;5011087;28;20092;-78
2023/04/29 01:08:59;;;;;;;55.50;36.42;;;10.80;85.20;;;;;;5007583;28;20104;-76
2023/04/29 01:11:33;;;;;;;56.33;35.10;;;10.80;85.20;;;;;;5011949;28;20137;-76
2023/04/29 01:14:02;;;;;;;56.78;36.83;;;10.80;85.30;;;;;;5005440;28;20024;-77
2023/04/29 01:16:42;;;;;;;57.42;36.38;;;10.80;85.20;;;;;;5015193;28;20048;-76
2023/04/29 01:19:33;;;;;;;52.08;34.08;;;10.80;85.10;;;;;;5011100;28;20018;-76
2023/04/29 01:21:59;;;;;;;51.80;34.30;;;10.70;85.00;;;;;;5008643;28;20129;-77
2023/04/29 01:24:25;;;;;;;56.67;35.17;;;10.70;85.00;;;;;;5029943;28;20447;-76
2023/04/29 01:26:56;;;;;;;57.63;35.35;;;10.70;85.00;;;;;;5008285;28;20363;-76
2023/04/29 01:29:26;;;;;;;52.90;34.28;;;10.60;85.10;;;;;;5011127;28;20022;-75
2023/04/29 01:32:08;;;;;;;52.00;35.25;;;10.60;85.10;;;;;;5004774;28;20564;-76
2023/04/29 01:34:38;;;;;;;59.65;36.67;;;10.50;85.30;;;;;;5009744;28;20345;-76
2023/04/29 01:37:27;;;;;;;57.95;35.67;;;10.60;85.40;;;;;;5012332;28;20048;-75
2023/04/29 01:40:08;;;;;;;60.28;36.17;;;10.60;85.50;;;;;;5008451;28;20068;-75
2023/04/29 01:42:51;;;;;;;51.63;33.55;;;10.60;85.50;;;;;;5003977;28;20133;-77
2023/04/29 01:45:20;;;;;;;60.63;37.70;;;10.60;85.60;;;;;;5004855;28;20385;-76
2023/04/29 01:47:47;;;;;;;58.63;38.03;;;10.60;85.60;;;;;;5009280;28;20060;-75
2023/04/29 01:50:13;;;;;;;55.55;36.42;;;10.60;85.80;;;;;;5010740;28;20048;-76
2023/04/29 01:52:39;;;;;;;64.20;39.35;;;10.70;85.60;;;;;;5009034;28;20479;-75
2023/04/29 01:55:05;;;;;;;56.97;38.47;;;10.60;85.50;;;;;;5005762;28;20033;-75
2023/04/29 01:57:31;;;;;;;55.53;35.83;;;10.60;85.70;;;;;;5006518;28;20079;-77
2023/04/29 01:59:57;;;;;;;61.90;38.08;;;10.60;85.80;;;;;;5008202;28;20101;-75
2023/04/29 02:02:24;;;;;;;57.15;36.53;;;10.60;85.70;;;;;;5011723;28;20763;-76
2023/04/29 02:04:50;;;;;;;58.83;38.45;;;10.60;85.80;;;;;;5008299;28;20025;-75
2023/04/29 02:07:16;;;;;;;58.63;39.00;;;10.60;85.70;;;;;;5008857;28;20144;-75
2023/04/29 02:09:41;;;;;;;64.72;39.53;;;10.60;85.70;;;;;;5012798;28;20105;-75
2023/04/29 02:12:07;;;;;;;60.13;38.10;;;10.60;85.60;;;;;;5008294;28;20031;-75
2023/04/29 02:14:33;;;;;;;51.58;35.90;;;10.60;85.60;;;;;;5005670;28;20068;-79
2023/04/29 02:16:59;;;;;;;56.30;38.08;;;10.60;85.60;;;;;;5007573;28;20381;-76
2023/04/29 02:19:24;;;;;;;59.30;36.17;;;10.60;85.60;;;;;;5014294;28;20029;-74
2023/04/29 02:21:50;;;;;;;56.58;36.72;;;10.60;85.60;;;;;;5012298;28;20050;-75
2023/04/29 02:24:16;;;;;;;58.03;36.97;;;10.60;85.40;;;;;;5009176;28;20374;-76
2023/04/29 02:26:41;;;;;;;54.35;35.42;;;10.50;85.50;;;;;;5006539;28;20037;-75
2023/04/29 02:29:08;;;;;;;42.88;31.27;;;10.60;85.40;;;;;;5010359;28;20025;-76
2023/04/29 02:31:33;;;;;;;47.47;33.25;;;10.50;84.90;;;;;;5004607;28;20042;-78
2023/04/29 02:33:59;;;;;;;40.60;29.83;;;10.40;85.10;;;;;;5014776;28;20030;-76
2023/04/29 02:36:25;;;;;;;36.88;29.35;;;10.40;84.90;;;;;;5009475;28;20040;-76
2023/04/29 02:38:54;;;;;;;30.23;24.73;;;10.30;84.60;;;;;;5010946;28;20026;-77
2023/04/29 02:41:20;;;;;;;30.35;25.38;;;10.30;84.20;;;;;;5011320;28;20054;-77
2023/04/29 02:43:47;;;;;;;32.90;26.10;;;10.30;83.90;;;;;;5009720;28;20025;-77
2023/04/29 02:46:14;;;;;;;35.70;26.85;;;10.30;84.10;;;;;;5009968;28;20054;-77
2023/04/29 02:48:40;;;;;;;30.40;25.40;;;10.30;83.90;;;;;;5011561;28;20052;-76
2023/04/29 02:51:06;;;;;;;33.38;26.63;;;10.40;84.00;;;;;;5007698;28;20059;-76
2023/04/29 02:53:31;;;;;;;40.70;27.25;;;10.40;83.90;;;;;;5007233;28;20452;-78
2023/04/29 02:55:57;;;;;;;37.53;26.88;;;10.40;84.10;;;;;;5007837;28;20022;-76
2023/04/29 02:58:23;;;;;;;34.47;24.42;;;10.40;83.90;;;;;;5006589;28;20071;-74
2023/04/29 03:00:49;;;;;;;34.97;27.30;;;10.40;84.10;;;;;;5008610;28;20033;-77
2023/04/29 03:03:16;;;;;;;33.05;25.10;;;10.40;84.00;;;;;;5009774;28;20445;-75
2023/04/29 03:05:42;;;;;;;34.65;26.50;;;10.50;84.10;;;;;;5013016;28;20024;-76
2023/04/29 03:08:09;;;;;;;35.45;26.08;;;10.40;84.10;;;;;;5012091;28;20101;-74
2023/04/29 03:10:35;;;;;;;33.15;26.30;;;10.40;84.10;;;;;;5005692;28;20109;-77
2023/04/29 03:13:01;;;;;;;34.33;26.05;;;10.40;84.00;;;;;;5008863;28;20022;-76
2023/04/29 03:15:26;;;;;;;34.05;26.55;;;10.40;84.10;;;;;;5008738;28;20041;-76
2023/04/29 03:17:52;;;;;;;34.08;26.60;;;10.40;84.20;;;;;;5008843;28;20062;-76
2023/04/29 03:20:19;;;;;;;35.38;26.00;;;10.40;84.40;;;;;;5008685;28;20026;-77
2023/04/29 03:22:45;;;;;;;31.48;25.33;;;10.30;84.20;;;;;;5008834;28;20056;-76
2023/04/29 03:25:11;;;;;;;29.50;21.85;;;10.30;84.10;;;;;;5006266;28;20022;-77
2023/04/29 03:27:37;;;;;;;33.42;23.67;;;10.20;83.50;;;;;;5005676;28;20351;-76
2023/04/29 03:30:03;;;;;;;31.60;22.40;;;10.20;83.60;;;;;;5012421;28;20048;-77
2023/04/29 03:32:28;;;;;;;31.83;23.10;;;10.20;83.40;;;;;;5008536;28;20065;-78
2023/04/29 03:34:54;;;;;;;26.13;21.83;;;10.20;83.50;;;;;;5009713;28;20438;-75
2023/04/29 03:37:20;;;;;;;29.63;20.15;;;10.20;83.40;;;;;;5008313;28;20041;-74
2023/04/29 03:39:46;;;;;;;34.30;23.25;;;10.20;83.20;;;;;;5009629;28;20076;-77
2023/04/29 03:42:11;;;;;;;33.70;22.95;;;10.20;82.80;;;;;;5005537;28;20251;-77
2023/04/29 03:44:37;;;;;;;30.27;22.67;;;10.10;82.80;;;;;;5011758;28;20476;-76
2023/04/29 03:47:03;;;;;;;32.40;23.25;;;10.20;83.00;;;;;;5006948;28;20473;-75
2023/04/29 03:49:28;;;;;;;30.23;23.73;;;10.20;82.90;;;;;;5006018;28;20682;-76
2023/04/29 03:51:54;;;;;;;31.98;23.60;;;10.20;83.00;;;;;;5010658;28;20052;-77
2023/04/29 03:54:20;;;;;;;34.15;24.17;;;10.20;82.90;;;;;;5009415;28;20473;-78
2023/04/29 03:56:46;;;;;;;30.63;24.65;;;10.20;82.90;;;;;;5006326;28;20088;-76
2023/04/29 03:59:11;;;;;;;31.50;23.05;;;10.10;83.10;;;;;;5003225;28;20108;-75
2023/04/29 04:01:38;;;;;;;35.55;25.15;;;10.20;83.20;;;;;;5004100;28;20424;-75
2023/04/29 04:04:04;;;;;;;31.65;22.98;;;10.20;83.10;;;;;;5013061;28;20033;-76
2023/04/29 04:06:30;;;;;;;26.67;21.55;;;10.10;83.10;;;;;;5008138;28;20108;-75
2023/04/29 04:08:56;;;;;;;30.95;21.35;;;10.00;83.20;;;;;;5013411;28;20018;-74
2023/04/29 04:11:22;;;;;;;31.77;24.25;;;10.00;83.20;;;;;;5009826;28;20088;-78
2023/04/29 04:13:48;;;;;;;35.47;24.52;;;10.10;83.10;;;;;;5008428;28;20055;-76
2023/04/29 04:16:14;;;;;;;30.52;24.20;;;10.00;83.00;;;;;;5011767;28;20421;-77
2023/04/29 04:18:40;;;;;;;32.50;24.35;;;10.00;83.20;;;;;;5017685;28;20072;-77
2023/04/29 04:21:10;;;;;;;33.47;25.90;;;10.00;83.30;;;;;;5010287;28;20046;-77
2023/04/29 04:23:39;;;;;;;36.83;26.38;;;10.00;83.40;;;;;;5009475;28;20076;-79
2023/04/29 04:26:05;;;;;;;33.92;25.50;;;10.00;83.40;;;;;;5008136;28;20496;-77
2023/04/29 04:28:30;;;;;;;34.53;26.02;;;9.90;83.30;;;;;;5010260;28;20022;-76
2023/04/29 04:30:56;;;;;;;40.42;27.63;;;10.00;83.30;;;;;;5008686;28;20044;-76
2023/04/29 04:33:22;;;;;;;34.85;26.08;;;10.00;83.30;;;;;;5010607;28;20462;-77
2023/04/29 04:35:48;;;;;;;32.03;25.48;;;10.00;83.20;;;;;;5013213;28;20105;-76
2023/04/29 04:38:14;;;;;;;32.03;24.63;;;9.90;83.10;;;;;;5012005;28;20117;-76
2023/04/29 04:40:42;;;;;;;35.83;25.88;;;9.90;83.40;;;;;;5005886;28;20029;-75
2023/04/29 04:43:08;;;;;;;33.33;26.02;;;9.90;83.30;;;;;;5013566;28;20128;-76
2023/04/29 04:45:34;;;;;;;35.90;26.75;;;9.90;83.50;;;;;;5008640;28;20440;-77
2023/04/29 04:48:00;;;;;;;35.60;25.42;;;9.90;83.50;;;;;;5011928;28;20104;-75
2023/04/29 04:50:29;;;;;;;35.75;26.85;;;9.80;83.60;;;;;;5009652;28;20469;-75
2023/04/29 04:52:55;;;;;;;31.70;25.52;;;9.80;83.90;;;;;;5013633;28;20034;-76
2023/04/29 04:55:21;;;;;;;34.42;26.35;;;9.80;84.00;;;;;;5005136;28;20022;-75
2023/04/29 04:57:47;;;;;;;37.80;26.33;;;9.90;83.90;;;;;;5010733;28;20057;-75
2023/04/29 05:00:13;;;;;;;32.35;26.52;;;9.90;83.80;;;;;;5007135;28;20050;-76
2023/04/29 05:02:39;;;;;;;30.58;24.40;;;9.80;83.60;;;;;;5009833;28;20038;-75
2023/04/29 05:05:05;;;;;;;30.80;23.05;;;9.90;83.80;;;;;;5005566;28;20030;-78
2023/04/29 05:07:31;;;;;;;32.72;23.85;;;9.90;83.50;;;;;;5013636;28;20034;-79
2023/04/29 05:09:57;;;;;;;31.45;22.05;;;9.90;83.50;;;;;;5005051;28;20061;-76
2023/04/29 05:12:25;;;;;;;31.02;23.42;;;9.90;83.60;;;;;;5009917;28;20069;-75
2023/04/29 05:14:54;;;;;;;31.42;24.23;;;9.90;83.50;;;;;;5007787;28;20411;-76
2023/04/29 05:17:19;;;;;;;29.65;22.50;;;9.90;83.50;;;;;;5008115;28;20439;-76
2023/04/29 05:19:45;;;;;;;30.48;22.65;;;9.90;83.30;;;;;;5008552;28;20124;-77
2023/04/29 05:22:11;;;;;;;30.75;23.98;;;9.90;83.10;;;;;;5009610;28;20344;-76
2023/04/29 05:24:37;;;;;;;30.42;24.33;;;9.90;83.20;;;;;;5006631;28;20098;-76
2023/04/29 05:27:03;;;;;;;34.38;24.30;;;9.90;83.20;;;;;;5006339;28;20043;-76
2023/04/29 05:29:29;;;;;;;31.05;23.40;;;9.80;83.40;;;;;;5008392;28;20021;-75
2023/04/29 05:31:55;;;;;;;34.65;23.25;;;9.80;83.60;;;;;;5009892;28;20471;-78
2023/04/29 05:34:21;;;;;;;30.38;23.45;;;9.80;83.60;;;;;;5010698;28;20084;-76
2023/04/29 05:36:46;;;;;;;34.22;24.30;;;9.90;83.80;;;;;;5017729;28;20026;-76
2023/04/29 05:39:12;;;;;;;38.95;25.13;;;9.80;83.70;;;;;;5012754;28;20072;-76
2023/04/29 05:41:38;;;;;;;35.50;25.40;;;9.80;83.60;;;;;;5010932;28;20124;-77
2023/04/29 05:44:04;;;;;;;32.85;25.30;;;9.80;83.70;;;;;;5011030;28;20421;-76
2023/04/29 05:46:30;;;;;;;38.50;24.92;;;9.80;83.80;;;;;;5012160;28;20037;-78
2023/04/29 05:48:55;;;;;;;35.08;24.92;;;9.90;83.60;;;;;;5007852;28;20149;-75
2023/04/29 05:51:21;;;;;;;35.72;26.55;;;9.90;83.60;;;;;;5014725;28;20792;-77
2023/04/29 05:53:47;;;;;;;33.22;27.00;;;9.90;83.50;;;;;;5008611;28;20022;-76
2023/04/29 05:56:12;;;;;;;36.97;26.25;;;9.90;83.50;;;;;;5005635;28;20022;-79
2023/04/29 05:58:38;;;;;;;31.25;24.27;;;9.90;83.50;;;;;;5010991;28;20378;-76
2023/04/29 06:01:04;;;;;;;37.95;24.63;;;10.00;83.70;;;;;;5007027;28;20075;-76
2023/04/29 06:03:30;;;;;;;33.90;24.80;;;10.00;83.50;;;;;;5011656;28;20017;-76
2023/04/29 06:05:55;;;;;;;36.15;26.25;;;10.10;83.80;;;;;;5012024;28;20032;-77
2023/04/29 06:08:21;;;;;;;33.45;26.75;;;10.10;83.50;;;;;;5016210;28;20034;-76
2023/04/29 06:10:47;;;;;;;33.67;25.50;;;10.10;83.40;;;;;;5010527;28;20029;-76
2023/04/29 06:13:13;;;;;;;34.78;26.52;;;10.00;83.50;;;;;;5006357;28;20049;-75
2023/04/29 06:15:38;;;;;;;33.85;27.60;;;10.10;83.30;;;;;;5010916;28;20415;-76
2023/04/29 06:18:04;;;;;;;36.03;28.10;;;10.10;83.20;;;;;;5008776;28;20193;-77
2023/04/29 06:20:30;;;;;;;34.25;26.55;;;10.10;83.10;;;;;;5006465;28;20481;-77
2023/04/29 06:22:56;;;;;;;35.70;27.23;;;10.10;82.80;;;;;;5004389;28;20124;-75
2023/04/29 06:25:21;;;;;;;38.00;29.27;;;10.20;82.80;;;;;;5006208;28;20619;-75
2023/04/29 06:27:48;;;;;;;36.67;27.55;;;10.20;82.30;;;;;;5001532;28;20033;-74
2023/04/29 06:30:13;;;;;;;32.28;25.15;;;10.20;82.30;;;;;;5008424;28;20033;-75
2023/04/29 06:32:39;;;;;;;34.78;27.10;;;10.20;82.40;;;;;;5001753;28;20030;-75
2023/04/29 06:35:05;;;;;;;35.78;29.40;;;10.30;82.20;;;;;;5009125;28;20061;-78
2023/04/29 06:37:31;;;;;;;37.97;28.58;;;10.20;81.60;;;;;;5015146;28;20092;-77
2023/04/29 06:39:57;;;;;;;33.30;27.80;;;10.20;81.50;;;;;;5011939;28;20089;-80
2023/04/29 06:42:22;;;;;;;33.10;25.83;;;10.30;81.80;;;;;;5008400;28;20046;-78
2023/04/29 06:44:48;;;;;;;35.60;26.92;;;10.20;81.40;;;;;;5005086;28;20109;-77
2023/04/29 06:47:14;;;;;;;35.50;28.48;;;10.30;81.60;;;;;;5005540;28;20531;-80
2023/04/29 06:49:42;;;;;;;33.35;26.88;;;10.40;81.30;;;;;;5010955;28;20022;-77
2023/04/29 06:52:08;;;;;;;37.42;28.58;;;10.40;81.30;;;;;;5010305;28;20042;-77
2023/04/29 06:54:34;;;;;;;35.63;27.38;;;10.40;81.40;;;;;;5003919;28;20396;-79
2023/04/29 06:57:01;;;;;;;35.92;25.38;;;10.40;81.10;;;;;;5002991;28;20397;-80
2023/04/29 06:59:26;;;;;;;36.92;29.98;;;10.60;81.30;;;;;;5013170;28;20040;-79
2023/04/29 07:01:52;;;;;;;38.45;26.55;;;10.60;81.00;;;;;;5004541;28;20050;-77
2023/04/29 07:04:18;;;;;;;33.33;26.80;;;10.60;80.60;;;;;;5017859;28;20018;-80
2023/04/29 07:06:45;;;;;;;33.08;26.70;;;10.60;80.80;;;;;;5009306;28;20153;-79
2023/04/29 07:09:15;;;;;;;31.45;25.40;;;10.60;80.70;;;;;;5007649;28;20110;-79
2023/04/29 07:11:41;;;;;;;31.23;25.50;;;10.60;80.70;;;;;;5000881;28;20068;-77
2023/04/29 07:14:07;;;;;;;34.47;25.95;;;10.60;80.70;;;;;;5007819;28;20049;-77
2023/04/29 07:16:32;;;;;;;28.92;25.17;;;10.70;80.70;;;;;;5014203;28;20444;-80
2023/04/29 07:18:58;;;;;;;33.53;25.33;;;10.80;80.70;;;;;;5006416;28;20714;-79
2023/04/29 07:21:25;;;;;;;31.80;25.15;;;10.70;80.50;;;;;;5014598;28;20041;-80
2023/04/29 07:23:51;;;;;;;30.75;24.70;;;10.70;80.40;;;;;;5006806;28;20029;-80
2023/04/29 07:26:17;;;;;;;40.40;25.73;;;10.80;80.80;;;;;;5005110;28;20041;-79
2023/04/29 07:28:44;;;;;;;34.25;25.17;;;10.80;80.60;;;;;;5002666;28;20046;-78
2023/04/29 07:31:11;;;;;;;35.25;26.15;;;10.90;79.90;;;;;;4999981;28;20030;-76
2023/04/29 07:33:37;;;;;;;35.42;26.50;;;11.00;80.20;;;;;;5011425;28;20044;-77
2023/04/29 07:36:03;;;;;;;32.88;25.92;;;11.10;80.10;;;;;;5007435;28;20382;-77
2023/04/29 07:38:29;;;;;;;34.80;27.50;;;10.90;79.80;;;;;;5012648;28;20022;-80
2023/04/29 07:40:55;;;;;;;37.30;27.88;;;11.10;80.30;;;;;;5006655;28;20346;-77
2023/04/29 07:43:21;;;;;;;38.60;28.90;;;11.10;80.40;;;;;;5013298;28;20109;-76
2023/04/29 07:45:47;;;;;;;35.67;29.20;;;11.10;80.30;;;;;;5009466;28;20105;-77
2023/04/29 07:48:13;;;;;;;35.55;27.50;;;11.10;79.90;;;;;;5011865;28;20029;-78
2023/04/29 07:50:39;;;;;;;34.70;26.38;;;11.10;79.40;;;;;;5007749;28;20022;-77
2023/04/29 07:53:05;;;;;;;31.27;25.95;;;11.10;79.60;;;;;;5008228;28;20474;-76
2023/04/29 07:55:31;;;;;;;31.35;26.20;;;11.10;79.60;;;;;;5005680;28;20037;-78
2023/04/29 07:57:57;;;;;;;33.33;26.00;;;11.30;79.20;;;;;;5010502;28;20060;-79
2023/04/29 08:00:23;;;;;;;33.58;28.05;;;11.30;79.10;;;;;;5006986;28;20038;-77
2023/04/29 08:02:52;;;;;;;33.38;26.30;;;11.40;78.90;;;;;;5005347;28;20096;-76
2023/04/29 08:05:20;;;;;;;32.38;26.33;;;11.40;78.90;;;;;;5004888;28;20033;-79
2023/04/29 08:07:49;;;;;;;35.42;26.33;;;11.50;78.80;;;;;;5019475;28;20034;-77
2023/04/29 08:10:15;;;;;;;34.28;25.73;;;11.60;78.80;;;;;;5004520;28;20034;-76
2023/04/29 08:12:44;;;;;;;31.35;24.38;;;11.80;78.40;;;;;;5004672;28;20128;-78
2023/04/29 08:15:10;;;;;;;31.40;25.15;;;11.90;78.10;;;;;;5010711;28;20108;-77
2023/04/29 08:17:35;;;;;;;28.50;24.42;;;11.80;77.60;;;;;;5007168;28;20125;-81
2023/04/29 08:20:01;;;;;;;31.73;24.63;;;11.70;77.30;;;;;;5011547;28;20045;-77
2023/04/29 08:22:27;;;;;;;32.65;25.15;;;11.60;77.80;;;;;;5017409;28;20064;-79
2023/04/29 08:24:52;;;;;;;32.78;23.95;;;11.80;77.70;;;;;;5015681;28;20032;-76
2023/04/29 08:27:20;;;;;;;28.52;25.10;;;11.80;77.60;;;;;;5008509;28;20041;-78
2023/04/29 08:29:45;;;;;;;32.40;25.08;;;11.90;77.00;;;;;;5014714;28;20021;-76
2023/04/29 08:32:11;;;;;;;29.55;23.25;;;11.90;77.20;;;;;;5005168;28;20042;-77
2023/04/29 08:34:37;;;;;;;30.48;24.52;;;11.90;77.30;;;;;;5011804;28;20026;-79
2023/04/29 08:37:03;;;;;;;29.20;23.58;;;12.00;76.60;;;;;;5009122;28;20034;-76
2023/04/29 08:39:29;;;;;;;29.27;23.55;;;12.00;76.60;;;;;;5015259;28;20438;-76
2023/04/29 08:41:59;;;;;;;29.25;22.50;;;12.10;76.70;;;;;;5013709;28;20251;-76
2023/04/29 08:44:29;;;;;;;27.88;23.65;;;12.30;76.50;;;;;;5016964;28;20117;-76
2023/04/29 08:46:56;;;;;;;30.55;23.20;;;12.60;76.30;;;;;;5012699;28;20403;-79
2023/04/29 08:49:21;;;;;;;25.83;21.95;;;12.80;75.00;;;;;;5011391;28;20029;-78
2023/04/29 08:51:50;;;;;;;29.30;22.23;;;13.00;75.40;;;;;;5011676;28;20044;-77
2023/04/29 08:54:16;;;;;;;29.40;21.45;;;13.20;73.90;;;;;;5011569;28;20423;-77
2023/04/29 08:56:44;;;;;;;23.52;19.83;;;13.10;73.30;;;;;;5012606;28;20077;-77
2023/04/29 08:59:15;;;;;;;26.35;20.02;;;13.40;73.10;;;;;;5011213;28;20029;-79
2023/04/29 09:01:43;;;;;;;25.42;19.70;;;13.30;71.10;;;;;;5006639;28;20196;-75
2023/04/29 09:04:46;;;;;;;24.63;18.55;;;13.40;70.80;;;;;;5008365;28;20374;-76
2023/04/29 09:07:12;;;;;;;28.90;20.20;;;13.60;71.00;;;;;;5015511;28;20120;-76
2023/04/29 09:09:39;;;;;;;22.33;18.77;;;13.60;69.90;;;;;;5007514;28;20044;-77
2023/04/29 09:12:05;;;;;;;23.00;18.77;;;13.80;68.90;;;;;;5013048;28;20029;-75
2023/04/29 09:14:34;;;;;;;22.70;18.88;;;13.80;68.60;;;;;;4999009;28;20084;-75
2023/04/29 09:17:00;;;;;;;23.25;18.30;;;13.60;68.50;;;;;;5013204;28;20438;-75
2023/04/29 09:19:34;;;;;;;22.35;17.63;;;13.60;68.60;;;;;;5012572;28;20057;-78
2023/04/29 09:22:01;;;;;;;23.53;18.30;;;13.40;69.20;;;;;;5008505;28;20089;-76
2023/04/29 09:24:29;;;;;;;25.83;18.25;;;13.50;70.10;;;;;;5004873;28;20111;-79
2023/04/29 09:26:55;;;;;;;26.13;20.05;;;13.40;69.20;;;;;;5006203;28;20046;-77
2023/04/29 09:29:21;;;;;;;21.45;18.88;;;13.30;70.20;;;;;;5008032;28;20105;-76
2023/04/29 09:31:47;;;;;;;22.15;18.60;;;13.30;69.60;;;;;;5005842;28;20045;-77
2023/04/29 09:34:13;;;;;;;22.75;18.20;;;13.30;69.70;;;;;;5010182;28;20064;-77
2023/04/29 09:36:46;;;;;;;21.90;17.88;;;13.50;69.30;;;;;;5014193;28;20079;-76
2023/04/29 09:39:21;;;;;;;23.13;17.75;;;13.60;69.60;;;;;;5010565;28;20358;-77
2023/04/29 09:41:50;;;;;;;;;;;13.60;68.90;;;;;;5009007;28;20037;-77
2023/04/29 09:44:16;;;;;;;21.27;17.52;;;13.90;67.70;;;;;;5015177;28;19959;-79
2023/04/29 09:46:41;;;;;;;23.05;18.52;;;14.20;68.30;;;;;;5008354;28;20053;-78
2023/04/29 09:49:25;;;;;;;20.77;18.15;;;14.20;66.90;;;;;;5007615;28;20044;-78
2023/04/29 09:51:53;;;;;;;23.20;17.45;;;14.00;66.40;;;;;;5007139;28;20032;-79
2023/04/29 09:54:23;;;;;;;24.92;19.00;;;14.10;67.90;;;;;;5006608;28;20489;-79
2023/04/29 09:56:50;;;;;;;26.45;20.23;;;14.30;67.20;;;;;;5007762;28;20034;-77
2023/04/29 09:59:17;;;;;;;27.98;21.08;;;14.10;66.00;;;;;;5010421;28;20022;-76
2023/04/29 10:01:43;;;;;;;26.17;21.27;;;14.00;67.00;;;;;;4997562;28;20053;-75
2023/04/29 10:04:11;;;;;;;28.02;20.83;;;14.00;66.40;;;;;;5002421;28;20022;-77
2023/04/29 10:06:39;;;;;;;23.42;20.73;;;13.70;66.30;;;;;;5032697;28;20369;-76
2023/04/29 10:09:07;;;;;;;25.40;19.83;;;13.80;66.10;;;;;;5010216;28;20021;-76
2023/04/29 10:11:33;;;;;;;24.67;19.73;;;14.00;66.20;;;;;;5009605;28;20221;-78
2023/04/29 10:14:00;;;;;;;24.67;19.88;;;13.90;66.20;;;;;;5009013;28;20044;-77
2023/04/29 10:16:33;;;;;;;23.85;19.08;;;14.10;66.50;;;;;;5006677;28;20478;-78
2023/04/29 10:19:02;;;;;;;24.65;19.90;;;14.10;67.40;;;;;;5007521;28;20045;-78
2023/04/29 10:21:32;;;;;;;23.90;20.73;;;14.30;66.10;;;;;;5006034;28;20046;-77
2023/04/29 10:24:00;;;;;;;24.70;19.88;;;14.20;65.90;;;;;;5010331;28;20098;-77
2023/04/29 10:26:28;;;;;;;22.50;18.73;;;14.50;65.30;;;;;;5022264;28;20145;-74
2023/04/29 10:29:00;;;;;;;24.85;20.23;;;14.50;64.40;;;;;;5003665;28;20105;-76
2023/04/29 10:31:26;;;;;;;25.90;21.58;;;14.60;64.80;;;;;;5003555;28;20506;-77
2023/04/29 10:33:56;;;;;;;25.80;21.23;;;14.60;64.50;;;;;;5008398;28;20125;-76
2023/04/29 10:36:22;;;;;;;25.10;20.90;;;14.50;64.70;;;;;;5008458;28;20084;-78
2023/04/29 10:38:52;;;;;;;26.70;21.45;;;14.10;65.70;;;;;;5002901;28;20030;-76
2023/04/29 10:41:24;;;;;;;24.42;21.25;;;14.00;66.60;;;;;;5008890;28;20032;-76
2023/04/29 10:43:53;;;;;;;25.70;21.42;;;14.10;67.10;;;;;;5010195;28;20084;-77
2023/04/29 10:46:20;;;;;;;24.85;21.33;;;14.20;67.00;;;;;;5007534;28;20041;-78
2023/04/29 10:48:54;;;;;;;25.95;20.55;;;14.10;66.10;;;;;;5004505;28;20026;-78
2023/04/29 10:51:42;;;;;;;24.80;20.00;;;14.30;66.10;;;;;;5005011;28;20042;-78
2023/04/29 10:54:15;;;;;;;24.73;21.45;;;14.20;65.90;;;;;;5005913;28;20025;-78
2023/04/29 10:56:49;;;;;;;27.48;21.73;;;14.10;66.10;;;;;;5001777;28;20116;-76
2023/04/29 10:59:35;;;;;;;26.23;22.40;;;14.40;65.30;;;;;;5005958;28;20017;-77
2023/04/29 11:02:01;;;;;;;27.15;22.95;;;14.60;65.50;;;;;;5004161;28;20066;-80
2023/04/29 11:04:27;;;;;;;25.63;22.88;;;14.50;65.00;;;;;;5008904;28;20103;-79
2023/04/29 11:07:01;;;;;;;30.30;23.30;;;14.60;65.70;;;;;;5006104;28;20612;-77
2023/04/29 11:09:28;;;;;;;32.20;25.95;;;14.80;64.90;;;;;;5005392;28;20026;-76
2023/04/29 11:11:54;;;;;;;27.13;23.52;;;15.30;63.20;;;;;;5005857;28;20117;-77
2023/04/29 11:14:30;;;;;;;36.28;28.50;;;15.80;63.80;;;;;;5005296;28;20429;-75
2023/04/29 11:16:58;;;;;;;38.92;29.80;;;16.10;61.00;;;;;;5003361;28;20034;-76
2023/04/29 11:19:30;;;;;;;38.38;29.45;;;16.00;58.70;;;;;;5005536;28;20037;-76
2023/04/29 11:22:10;;;;;;;38.60;30.67;;;15.70;60.70;;;;;;5008676;28;20603;-75
2023/04/29 11:24:47;;;;;;;35.63;28.63;;;15.60;60.80;;;;;;5000246;28;20221;-78
2023/04/29 11:27:14;;;;;;;33.28;27.33;;;15.20;61.60;;;;;;4999892;28;20046;-78
2023/04/29 11:29:40;;;;;;;34.25;26.80;;;15.40;62.50;;;;;;5005924;28;20022;-77
2023/04/29 11:32:07;;;;;;;39.83;31.63;;;15.40;61.90;;;;;;5005370;28;20049;-76
2023/04/29 11:34:32;;;;;;;36.05;29.17;;;15.30;60.90;;;;;;5008358;28;20496;-79
2023/04/29 11:36:59;;;;;;;41.85;33.10;;;15.60;60.90;;;;;;5009601;28;20065;-76
2023/04/29 11:39:26;;;;;;;42.42;33.38;;;16.00;60.00;;;;;;5009982;28;20469;-77
2023/04/29 11:42:01;;;;;;;41.13;33.25;;;16.20;60.20;;;;;;5008076;28;20045;-75
2023/04/29 11:44:27;;;;;;;41.53;32.15;;;16.30;59.00;;;;;;5005703;28;20045;-75
2023/04/29 11:47:00;;;;;;;38.58;31.50;;;15.80;59.50;;;;;;5008003;28;20080;-77
2023/04/29 11:49:38;;;;;;;41.75;31.48;;;16.10;59.90;;;;;;5005077;28;20037;-77
2023/04/29 11:52:03;;;;;;;43.30;31.40;;;16.20;59.10;;;;;;4998423;28;20065;-78
2023/04/29 11:54:29;;;;;;;31.67;25.88;;;16.10;58.40;;;;;;5004152;28;20745;-76
2023/04/29 11:56:57;;;;;;;26.33;21.88;;;15.90;60.70;;;;;;5010666;28;20038;-78
2023/04/29 11:59:23;;;;;;;29.27;22.42;;;15.70;60.70;;;;;;5017036;28;20033;-79
2023/04/29 12:01:50;;;;;;;27.27;22.50;;;15.70;62.50;;;;;;5004925;28;20061;-77
2023/04/29 12:04:16;;;;;;;30.30;24.08;;;16.00;62.10;;;;;;5015548;28;20113;-81
2023/04/29 12:06:42;;;;;;;30.02;23.10;;;15.70;62.50;;;;;;5008847;28;20030;-78
2023/04/29 12:09:08;;;;;;;31.08;25.38;;;15.60;60.90;;;;;;5013290;28;20022;-79
2023/04/29 12:11:36;;;;;;;29.90;25.50;;;15.40;62.30;;;;;;5010939;28;20068;-79
2023/04/29 12:14:05;;;;;;;32.30;26.27;;;15.80;61.90;;;;;;5007136;28;20101;-79
2023/04/29 12:16:32;;;;;;;30.02;25.02;;;15.70;61.00;;;;;;5006200;28;20022;-81
2023/04/29 12:18:58;;;;;;;33.78;26.45;;;15.70;61.60;;;;;;5011964;28;20014;-80
2023/04/29 12:21:26;;;;;;;36.80;28.13;;;15.80;61.20;;;;;;5001842;28;20178;-80
2023/04/29 12:23:52;;;;;;;32.75;26.42;;;16.20;60.30;;;;;;5006752;28;20021;-82
2023/04/29 12:26:19;;;;;;;32.17;25.88;;;16.30;60.00;;;;;;5010645;28;20044;-81
2023/04/29 12:28:47;;;;;;;33.63;27.67;;;16.30;58.80;;;;;;5011275;28;20112;-80